sensor_id;sensor_type;location;lat;lon;timestamp;temperature;humidity
10149;DHT22;5115;50.920;6.376;2023-08-12T00:02:10;23.30;99.90
10149;DHT22;5115;50.920;6.376;2023-08-12T00:04:35;23.30;99.90
10149;DHT22;5115;50.920;6.376;2023-08-12T00:07:01;23.40;99.90
10149;DHT22;5115;50.920;6.376;2023-08-12T00:09:26;23.40;99.90
10149;DHT22;5115;50.920;6.376;2023-08-12T00:11:52;23.40;99.90
10149;DHT22;5115;50.920;6.376;2023-08-12T00:14:17;23.30;99.90
10149;DHT22;5115;50.920;6.376;2023-08-12T00:16:43;23.20;99.90
10149;DHT22;5115;50.920;6.376;2023-08-12T00:19:08;23.30;99.90
10149;DHT22;5115;50.920;6.376;2023-08-12T00:21:34;23.10;99.90
10149;DHT22;5115;50.920;6.376;2023-08-12T00:23:59;22.90;99.90
10149;DHT22;5115;50.920;6.376;2023-08-12T00:26:25;23.00;99.90
10149;DHT22;5115;50.920;6.376;2023-08-12T00:28:52;23.00;99.90
10149;DHT22;5115;50.920;6.376;2023-08-12T00:31:17;23.00;99.90
10149;DHT22;5115;50.920;6.376;2023-08-12T00:33:43;23.00;99.90
10149;DHT22;5115;50.920;6.376;2023-08-12T00:36:08;23.10;99.90
10149;DHT22;5115;50.920;6.376;2023-08-12T00:38:34;23.40;99.90
10149;DHT22;5115;50.920;6.376;2023-08-12T00:40:59;23.10;99.90
10149;DHT22;5115;50.920;6.376;2023-08-12T00:43:25;23.00;99.90
10149;DHT22;5115;50.920;6.376;2023-08-12T00:45:50;23.00;99.90
10149;DHT22;5115;50.920;6.376;2023-08-12T00:48:17;23.10;99.90
10149;DHT22;5115;50.920;6.376;2023-08-12T00:50:42;23.00;99.90
10149;DHT22;5115;50.920;6.376;2023-08-12T00:53:09;23.20;99.90
10149;DHT22;5115;50.920;6.376;2023-08-12T00:55:35;23.10;99.90
10149;DHT22;5115;50.920;6.376;2023-08-12T00:58:02;22.90;99.90
10149;DHT22;5115;50.920;6.376;2023-08-12T01:00:28;23.00;99.90
10149;DHT22;5115;50.920;6.376;2023-08-12T01:02:56;22.80;99.90
10149;DHT22;5115;50.920;6.376;2023-08-12T01:05:22;22.90;99.90
10149;DHT22;5115;50.920;6.376;2023-08-12T01:07:48;22.90;99.90
10149;DHT22;5115;50.920;6.376;2023-08-12T01:10:14;23.00;99.90
10149;DHT22;5115;50.920;6.376;2023-08-12T01:12:57;22.60;99.90
10149;DHT22;5115;50.920;6.376;2023-08-12T01:15:24;22.50;99.90
10149;DHT22;5115;50.920;6.376;2023-08-12T01:17:53;22.50;99.90
10149;DHT22;5115;50.920;6.376;2023-08-12T01:20:22;22.60;99.90
10149;DHT22;5115;50.920;6.376;2023-08-12T01:22:56;22.80;99.90
10149;DHT22;5115;50.920;6.376;2023-08-12T01:25:24;22.80;99.90
10149;DHT22;5115;50.920;6.376;2023-08-12T01:28:21;22.80;99.90
10149;DHT22;5115;50.920;6.376;2023-08-12T01:30:56;22.80;99.90
10149;DHT22;5115;50.920;6.376;2023-08-12T01:33:39;22.90;99.90
10149;DHT22;5115;50.920;6.376;2023-08-12T01:36:14;22.80;99.90
10149;DHT22;5115;50.920;6.376;2023-08-12T01:38:42;22.80;99.90
10149;DHT22;5115;50.920;6.376;2023-08-12T01:41:10;22.90;99.90
10149;DHT22;5115;50.920;6.376;2023-08-12T01:43:37;23.50;99.90
10149;DHT22;5115;50.920;6.376;2023-08-12T01:46:03;22.80;99.90
10149;DHT22;5115;50.920;6.376;2023-08-12T01:48:28;22.70;99.90
10149;DHT22;5115;50.920;6.376;2023-08-12T01:50:54;22.60;99.90
10149;DHT22;5115;50.920;6.376;2023-08-12T01:53:19;22.80;99.90
10149;DHT22;5115;50.920;6.376;2023-08-12T01:55:45;22.90;99.90
10149;DHT22;5115;50.920;6.376;2023-08-12T01:58:11;22.80;99.90
10149;DHT22;5115;50.920;6.376;2023-08-12T02:00:37;22.80;99.90
10149;DHT22;5115;50.920;6.376;2023-08-12T02:03:03;22.90;99.90
10149;DHT22;5115;50.920;6.376;2023-08-12T02:05:28;22.80;99.90
10149;DHT22;5115;50.920;6.376;2023-08-12T02:07:54;22.80;99.90
10149;DHT22;5115;50.920;6.376;2023-08-12T02:10:19;22.80;99.90
10149;DHT22;5115;50.920;6.376;2023-08-12T02:12:45;22.80;99.90
10149;DHT22;5115;50.920;6.376;2023-08-12T02:15:11;22.70;99.90
10149;DHT22;5115;50.920;6.376;2023-08-12T02:17:36;22.80;99.90
10149;DHT22;5115;50.920;6.376;2023-08-12T02:20:02;22.80;99.90
10149;DHT22;5115;50.920;6.376;2023-08-12T02:22:29;22.70;99.90
10149;DHT22;5115;50.920;6.376;2023-08-12T02:24:55;22.70;99.90
10149;DHT22;5115;50.920;6.376;2023-08-12T02:27:20;22.70;99.90
10149;DHT22;5115;50.920;6.376;2023-08-12T02:29:46;22.70;99.90
10149;DHT22;5115;50.920;6.376;2023-08-12T02:32:11;22.80;99.90
10149;DHT22;5115;50.920;6.376;2023-08-12T02:34:37;22.80;99.90
10149;DHT22;5115;50.920;6.376;2023-08-12T02:37:03;22.90;99.90
10149;DHT22;5115;50.920;6.376;2023-08-12T02:39:28;22.90;99.90
10149;DHT22;5115;50.920;6.376;2023-08-12T02:41:54;22.90;99.90
10149;DHT22;5115;50.920;6.376;2023-08-12T02:44:19;22.90;99.90
10149;DHT22;5115;50.920;6.376;2023-08-12T02:46:45;22.80;99.90
10149;DHT22;5115;50.920;6.376;2023-08-12T02:49:10;22.80;99.90
10149;DHT22;5115;50.920;6.376;2023-08-12T02:51:36;22.70;99.90
10149;DHT22;5115;50.920;6.376;2023-08-12T02:54:02;22.50;99.90
10149;DHT22;5115;50.920;6.376;2023-08-12T02:56:27;22.40;99.90
10149;DHT22;5115;50.920;6.376;2023-08-12T02:58:53;22.40;99.90
10149;DHT22;5115;50.920;6.376;2023-08-12T03:01:20;22.50;99.90
10149;DHT22;5115;50.920;6.376;2023-08-12T03:03:45;22.70;99.90
10149;DHT22;5115;50.920;6.376;2023-08-12T03:06:11;22.50;99.90
10149;DHT22;5115;50.920;6.376;2023-08-12T03:08:36;22.70;99.90
10149;DHT22;5115;50.920;6.376;2023-08-12T03:11:02;22.50;99.90
10149;DHT22;5115;50.920;6.376;2023-08-12T03:13:28;22.60;99.90
10149;DHT22;5115;50.920;6.376;2023-08-12T03:15:54;22.60;99.90
10149;DHT22;5115;50.920;6.376;2023-08-12T03:18:20;22.60;99.90
10149;DHT22;5115;50.920;6.376;2023-08-12T03:20:46;22.70;99.90
10149;DHT22;5115;50.920;6.376;2023-08-12T03:23:12;22.60;99.90
10149;DHT22;5115;50.920;6.376;2023-08-12T03:25:37;22.60;99.90
10149;DHT22;5115;50.920;6.376;2023-08-12T03:28:03;22.50;99.90
10149;DHT22;5115;50.920;6.376;2023-08-12T03:30:29;22.50;99.90
10149;DHT22;5115;50.920;6.376;2023-08-12T03:32:54;22.50;99.90
10149;DHT22;5115;50.920;6.376;2023-08-12T03:35:20;22.50;99.90
10149;DHT22;5115;50.920;6.376;2023-08-12T03:37:45;22.50;99.90
10149;DHT22;5115;50.920;6.376;2023-08-12T03:40:11;22.40;99.90
10149;DHT22;5115;50.920;6.376;2023-08-12T03:42:36;22.50;99.90
10149;DHT22;5115;50.920;6.376;2023-08-12T03:45:02;22.50;99.90
10149;DHT22;5115;50.920;6.376;2023-08-12T03:47:28;22.50;99.90
10149;DHT22;5115;50.920;6.376;2023-08-12T03:49:53;22.40;99.90
10149;DHT22;5115;50.920;6.376;2023-08-12T03:52:19;22.40;99.90
10149;DHT22;5115;50.920;6.376;2023-08-12T03:54:44;22.50;99.90
10149;DHT22;5115;50.920;6.376;2023-08-12T03:57:11;22.50;99.90
10149;DHT22;5115;50.920;6.376;2023-08-12T03:59:36;22.40;99.90
10149;DHT22;5115;50.920;6.376;2023-08-12T04:02:02;22.40;99.90
10149;DHT22;5115;50.920;6.376;2023-08-12T04:04:29;22.40;99.90
10149;DHT22;5115;50.920;6.376;2023-08-12T04:06:55;22.40;99.90
10149;DHT22;5115;50.920;6.376;2023-08-12T04:09:20;22.40;99.90
10149;DHT22;5115;50.920;6.376;2023-08-12T04:11:46;22.40;99.90
10149;DHT22;5115;50.920;6.376;2023-08-12T04:14:15;22.30;99.90
10149;DHT22;5115;50.920;6.376;2023-08-12T04:16:41;22.30;99.90
10149;DHT22;5115;50.920;6.376;2023-08-12T04:19:06;22.40;99.90
10149;DHT22;5115;50.920;6.376;2023-08-12T04:21:32;22.10;99.90
10149;DHT22;5115;50.920;6.376;2023-08-12T04:23:57;22.10;99.90
10149;DHT22;5115;50.920;6.376;2023-08-12T04:26:23;22.20;99.90
10149;DHT22;5115;50.920;6.376;2023-08-12T04:28:48;22.10;99.90
10149;DHT22;5115;50.920;6.376;2023-08-12T04:31:14;22.50;99.90
10149;DHT22;5115;50.920;6.376;2023-08-12T04:33:39;22.10;99.90
10149;DHT22;5115;50.920;6.376;2023-08-12T04:36:05;22.00;99.90
10149;DHT22;5115;50.920;6.376;2023-08-12T04:38:31;22.00;99.90
10149;DHT22;5115;50.920;6.376;2023-08-12T04:40:57;22.10;99.90
10149;DHT22;5115;50.920;6.376;2023-08-12T04:43:22;22.10;99.90
10149;DHT22;5115;50.920;6.376;2023-08-12T04:45:48;22.20;99.90
10149;DHT22;5115;50.920;6.376;2023-08-12T04:48:14;22.10;99.90
10149;DHT22;5115;50.920;6.376;2023-08-12T04:50:42;22.10;99.90
10149;DHT22;5115;50.920;6.376;2023-08-12T04:53:07;22.00;99.90
10149;DHT22;5115;50.920;6.376;2023-08-12T04:55:34;22.00;99.90
10149;DHT22;5115;50.920;6.376;2023-08-12T04:58:02;22.00;99.90
10149;DHT22;5115;50.920;6.376;2023-08-12T05:00:27;22.00;99.90
10149;DHT22;5115;50.920;6.376;2023-08-12T05:02:53;22.00;99.90
10149;DHT22;5115;50.920;6.376;2023-08-12T05:05:19;22.00;99.90
10149;DHT22;5115;50.920;6.376;2023-08-12T05:07:45;22.00;99.90
10149;DHT22;5115;50.920;6.376;2023-08-12T05:10:15;21.90;99.90
10149;DHT22;5115;50.920;6.376;2023-08-12T05:12:42;21.90;99.90
10149;DHT22;5115;50.920;6.376;2023-08-12T05:15:08;21.90;99.90
10149;DHT22;5115;50.920;6.376;2023-08-12T05:17:33;21.90;99.90
10149;DHT22;5115;50.920;6.376;2023-08-12T05:19:59;21.90;99.90
10149;DHT22;5115;50.920;6.376;2023-08-12T05:22:24;21.80;99.90
10149;DHT22;5115;50.920;6.376;2023-08-12T05:24:50;21.90;99.90
10149;DHT22;5115;50.920;6.376;2023-08-12T05:27:15;21.90;99.90
10149;DHT22;5115;50.920;6.376;2023-08-12T05:29:41;22.00;99.90
10149;DHT22;5115;50.920;6.376;2023-08-12T05:32:06;22.00;99.90
10149;DHT22;5115;50.920;6.376;2023-08-12T05:34:32;22.00;99.90
10149;DHT22;5115;50.920;6.376;2023-08-12T05:36:57;22.00;99.90
10149;DHT22;5115;50.920;6.376;2023-08-12T05:39:23;22.10;99.90
10149;DHT22;5115;50.920;6.376;2023-08-12T05:41:49;22.00;99.90
10149;DHT22;5115;50.920;6.376;2023-08-12T05:44:14;22.00;99.90
10149;DHT22;5115;50.920;6.376;2023-08-12T05:46:40;22.20;99.90
10149;DHT22;5115;50.920;6.376;2023-08-12T05:49:06;21.90;99.90
10149;DHT22;5115;50.920;6.376;2023-08-12T05:51:31;22.80;99.90
10149;DHT22;5115;50.920;6.376;2023-08-12T05:53:57;21.90;99.90
10149;DHT22;5115;50.920;6.376;2023-08-12T05:56:22;21.90;99.90
10149;DHT22;5115;50.920;6.376;2023-08-12T05:58:48;21.80;99.90
10149;DHT22;5115;50.920;6.376;2023-08-12T06:01:13;21.80;99.90
10149;DHT22;5115;50.920;6.376;2023-08-12T06:03:39;21.90;99.90
10149;DHT22;5115;50.920;6.376;2023-08-12T06:06:05;21.80;99.90
10149;DHT22;5115;50.920;6.376;2023-08-12T06:08:30;22.10;99.90
10149;DHT22;5115;50.920;6.376;2023-08-12T06:10:56;21.80;99.90
10149;DHT22;5115;50.920;6.376;2023-08-12T06:13:21;21.70;99.90
10149;DHT22;5115;50.920;6.376;2023-08-12T06:15:47;21.70;99.90
10149;DHT22;5115;50.920;6.376;2023-08-12T06:18:12;22.00;99.90
10149;DHT22;5115;50.920;6.376;2023-08-12T06:20:38;21.70;99.90
10149;DHT22;5115;50.920;6.376;2023-08-12T06:23:03;21.80;99.90
10149;DHT22;5115;50.920;6.376;2023-08-12T06:25:29;21.80;99.90
10149;DHT22;5115;50.920;6.376;2023-08-12T06:27:55;21.90;99.90
10149;DHT22;5115;50.920;6.376;2023-08-12T06:30:20;21.90;99.90
10149;DHT22;5115;50.920;6.376;2023-08-12T06:32:46;22.10;99.90
10149;DHT22;5115;50.920;6.376;2023-08-12T06:35:11;22.10;99.90
10149;DHT22;5115;50.920;6.376;2023-08-12T06:37:37;22.10;99.90
10149;DHT22;5115;50.920;6.376;2023-08-12T06:40:03;22.10;99.90
10149;DHT22;5115;50.920;6.376;2023-08-12T06:42:29;22.00;99.90
10149;DHT22;5115;50.920;6.376;2023-08-12T06:44:56;22.00;99.90
10149;DHT22;5115;50.920;6.376;2023-08-12T06:47:22;21.90;99.90
10149;DHT22;5115;50.920;6.376;2023-08-12T06:49:48;22.00;99.90
10149;DHT22;5115;50.920;6.376;2023-08-12T06:52:14;22.20;99.90
10149;DHT22;5115;50.920;6.376;2023-08-12T06:54:40;22.20;99.90
10149;DHT22;5115;50.920;6.376;2023-08-12T06:57:05;22.20;99.90
10149;DHT22;5115;50.920;6.376;2023-08-12T06:59:31;22.20;99.90
10149;DHT22;5115;50.920;6.376;2023-08-12T07:01:56;22.20;99.90
10149;DHT22;5115;50.920;6.376;2023-08-12T07:04:22;22.30;99.90
10149;DHT22;5115;50.920;6.376;2023-08-12T07:06:48;22.30;99.90
10149;DHT22;5115;50.920;6.376;2023-08-12T07:09:14;22.10;99.90
10149;DHT22;5115;50.920;6.376;2023-08-12T07:11:39;22.10;99.90
10149;DHT22;5115;50.920;6.376;2023-08-12T07:14:05;22.10;99.90
10149;DHT22;5115;50.920;6.376;2023-08-12T07:16:31;22.10;99.90
10149;DHT22;5115;50.920;6.376;2023-08-12T07:18:56;22.10;99.90
10149;DHT22;5115;50.920;6.376;2023-08-12T07:21:22;22.30;99.90
10149;DHT22;5115;50.920;6.376;2023-08-12T07:23:48;22.10;99.90
10149;DHT22;5115;50.920;6.376;2023-08-12T07:26:13;22.60;99.90
10149;DHT22;5115;50.920;6.376;2023-08-12T07:28:39;22.20;99.90
10149;DHT22;5115;50.920;6.376;2023-08-12T07:31:04;22.30;99.90
10149;DHT22;5115;50.920;6.376;2023-08-12T07:33:30;22.40;99.90
10149;DHT22;5115;50.920;6.376;2023-08-12T07:35:56;22.40;99.90
10149;DHT22;5115;50.920;6.376;2023-08-12T07:38:21;22.40;99.90
10149;DHT22;5115;50.920;6.376;2023-08-12T07:40:49;22.50;99.90
10149;DHT22;5115;50.920;6.376;2023-08-12T07:43:14;22.50;99.90
10149;DHT22;5115;50.920;6.376;2023-08-12T07:45:40;22.60;99.90
10149;DHT22;5115;50.920;6.376;2023-08-12T07:48:05;22.60;99.90
10149;DHT22;5115;50.920;6.376;2023-08-12T07:50:31;22.60;99.90
10149;DHT22;5115;50.920;6.376;2023-08-12T07:52:57;22.70;99.90
10149;DHT22;5115;50.920;6.376;2023-08-12T07:55:22;22.70;99.90
10149;DHT22;5115;50.920;6.376;2023-08-12T07:57:48;22.70;99.90
10149;DHT22;5115;50.920;6.376;2023-08-12T08:00:14;22.70;99.90
10149;DHT22;5115;50.920;6.376;2023-08-12T08:02:40;22.70;99.90
10149;DHT22;5115;50.920;6.376;2023-08-12T08:05:06;22.80;99.90
10149;DHT22;5115;50.920;6.376;2023-08-12T08:07:31;22.80;99.90
10149;DHT22;5115;50.920;6.376;2023-08-12T08:09:57;22.80;99.90
10149;DHT22;5115;50.920;6.376;2023-08-12T08:12:23;22.80;99.90
10149;DHT22;5115;50.920;6.376;2023-08-12T08:14:48;22.70;99.90
10149;DHT22;5115;50.920;6.376;2023-08-12T08:17:14;22.70;99.90
10149;DHT22;5115;50.920;6.376;2023-08-12T08:19:39;22.70;99.90
10149;DHT22;5115;50.920;6.376;2023-08-12T08:22:05;22.70;99.90
10149;DHT22;5115;50.920;6.376;2023-08-12T08:24:30;22.80;99.90
10149;DHT22;5115;50.920;6.376;2023-08-12T08:26:56;22.80;99.90
10149;DHT22;5115;50.920;6.376;2023-08-12T08:29:22;22.70;99.90
10149;DHT22;5115;50.920;6.376;2023-08-12T08:31:48;22.80;99.90
10149;DHT22;5115;50.920;6.376;2023-08-12T08:34:14;22.80;99.90
10149;DHT22;5115;50.920;6.376;2023-08-12T08:36:40;22.80;99.90
10149;DHT22;5115;50.920;6.376;2023-08-12T08:39:05;22.80;99.90
10149;DHT22;5115;50.920;6.376;2023-08-12T08:41:32;22.90;99.90
10149;DHT22;5115;50.920;6.376;2023-08-12T08:44:02;23.00;99.90
10149;DHT22;5115;50.920;6.376;2023-08-12T08:46:29;23.10;99.90
10149;DHT22;5115;50.920;6.376;2023-08-12T08:48:55;23.20;99.90
10149;DHT22;5115;50.920;6.376;2023-08-12T08:51:25;23.30;99.90
10149;DHT22;5115;50.920;6.376;2023-08-12T08:53:51;23.70;99.90
10149;DHT22;5115;50.920;6.376;2023-08-12T08:56:18;23.70;99.90
10149;DHT22;5115;50.920;6.376;2023-08-12T08:58:44;23.80;99.90
10149;DHT22;5115;50.920;6.376;2023-08-12T09:01:10;23.90;99.90
10149;DHT22;5115;50.920;6.376;2023-08-12T09:03:38;24.00;99.90
10149;DHT22;5115;50.920;6.376;2023-08-12T09:06:03;24.10;99.90
10149;DHT22;5115;50.920;6.376;2023-08-12T09:08:31;24.00;99.90
10149;DHT22;5115;50.920;6.376;2023-08-12T09:11:01;24.10;99.90
10149;DHT22;5115;50.920;6.376;2023-08-12T09:13:27;24.10;99.90
10149;DHT22;5115;50.920;6.376;2023-08-12T09:15:53;24.20;99.90
10149;DHT22;5115;50.920;6.376;2023-08-12T09:18:19;24.40;99.90
10149;DHT22;5115;50.920;6.376;2023-08-12T09:20:52;24.50;99.90
10149;DHT22;5115;50.920;6.376;2023-08-12T09:23:18;24.70;99.90
10149;DHT22;5115;50.920;6.376;2023-08-12T09:25:44;24.60;99.90
10149;DHT22;5115;50.920;6.376;2023-08-12T09:28:10;24.60;99.90
10149;DHT22;5115;50.920;6.376;2023-08-12T09:30:38;25.00;99.90
10149;DHT22;5115;50.920;6.376;2023-08-12T09:33:06;24.50;99.90
10149;DHT22;5115;50.920;6.376;2023-08-12T09:35:38;24.50;99.90
10149;DHT22;5115;50.920;6.376;2023-08-12T09:38:05;24.60;99.90
10149;DHT22;5115;50.920;6.376;2023-08-12T09:40:34;24.50;99.90
10149;DHT22;5115;50.920;6.376;2023-08-12T09:43:00;24.70;99.90
10149;DHT22;5115;50.920;6.376;2023-08-12T09:45:26;24.20;99.90
10149;DHT22;5115;50.920;6.376;2023-08-12T09:47:52;24.10;99.90
10149;DHT22;5115;50.920;6.376;2023-08-12T09:50:24;24.00;99.90
10149;DHT22;5115;50.920;6.376;2023-08-12T09:52:51;23.90;99.90
10149;DHT22;5115;50.920;6.376;2023-08-12T09:55:19;23.90;99.90
10149;DHT22;5115;50.920;6.376;2023-08-12T09:57:48;23.90;99.90
10149;DHT22;5115;50.920;6.376;2023-08-12T10:00:15;23.90;99.90
10149;DHT22;5115;50.920;6.376;2023-08-12T10:02:46;24.00;99.90
10149;DHT22;5115;50.920;6.376;2023-08-12T10:05:12;24.30;99.90
10149;DHT22;5115;50.920;6.376;2023-08-12T10:07:41;24.40;99.90
10149;DHT22;5115;50.920;6.376;2023-08-12T10:10:07;24.50;99.90
10149;DHT22;5115;50.920;6.376;2023-08-12T10:12:34;24.50;99.90
10149;DHT22;5115;50.920;6.376;2023-08-12T10:15:01;24.50;99.90
10149;DHT22;5115;50.920;6.376;2023-08-12T10:17:27;24.70;99.90
10149;DHT22;5115;50.920;6.376;2023-08-12T10:20:01;24.70;99.90
10149;DHT22;5115;50.920;6.376;2023-08-12T10:22:30;24.70;99.90
10149;DHT22;5115;50.920;6.376;2023-08-12T10:24:58;24.50;99.90
10149;DHT22;5115;50.920;6.376;2023-08-12T10:27:25;24.50;99.90
10149;DHT22;5115;50.920;6.376;2023-08-12T10:29:51;24.40;99.90
10149;DHT22;5115;50.920;6.376;2023-08-12T10:32:16;24.40;99.90
10149;DHT22;5115;50.920;6.376;2023-08-12T10:34:42;24.20;99.90
10149;DHT22;5115;50.920;6.376;2023-08-12T10:37:09;24.20;99.90
10149;DHT22;5115;50.920;6.376;2023-08-12T10:39:36;24.20;99.90
10149;DHT22;5115;50.920;6.376;2023-08-12T10:42:02;24.10;99.90
10149;DHT22;5115;50.920;6.376;2023-08-12T10:44:49;24.10;99.90
10149;DHT22;5115;50.920;6.376;2023-08-12T10:47:16;24.00;99.90
10149;DHT22;5115;50.920;6.376;2023-08-12T10:49:49;23.90;99.90
10149;DHT22;5115;50.920;6.376;2023-08-12T10:52:27;23.90;99.90
10149;DHT22;5115;50.920;6.376;2023-08-12T10:55:19;23.90;99.90
10149;DHT22;5115;50.920;6.376;2023-08-12T10:57:45;24.00;99.90
10149;DHT22;5115;50.920;6.376;2023-08-12T11:00:13;24.00;99.90
10149;DHT22;5115;50.920;6.376;2023-08-12T11:02:39;24.20;99.90
10149;DHT22;5115;50.920;6.376;2023-08-12T11:05:10;24.30;99.90
10149;DHT22;5115;50.920;6.376;2023-08-12T11:07:59;24.40;99.90
10149;DHT22;5115;50.920;6.376;2023-08-12T11:10:27;24.60;99.90
10149;DHT22;5115;50.920;6.376;2023-08-12T11:12:57;24.80;99.90
10149;DHT22;5115;50.920;6.376;2023-08-12T11:17:59;25.30;99.90
10149;DHT22;5115;50.920;6.376;2023-08-12T11:20:28;25.30;99.90
10149;DHT22;5115;50.920;6.376;2023-08-12T11:22:55;25.30;99.90
10149;DHT22;5115;50.920;6.376;2023-08-12T11:25:20;25.60;99.90
10149;DHT22;5115;50.920;6.376;2023-08-12T11:27:47;25.50;99.90
10149;DHT22;5115;50.920;6.376;2023-08-12T11:30:14;25.50;99.90
10149;DHT22;5115;50.920;6.376;2023-08-12T11:32:45;25.60;99.90
10149;DHT22;5115;50.920;6.376;2023-08-12T11:35:12;25.60;99.90
10149;DHT22;5115;50.920;6.376;2023-08-12T11:37:39;25.50;99.90
10149;DHT22;5115;50.920;6.376;2023-08-12T11:40:07;25.50;99.90
10149;DHT22;5115;50.920;6.376;2023-08-12T11:42:39;25.50;99.90
10149;DHT22;5115;50.920;6.376;2023-08-12T11:45:06;25.60;99.90
10149;DHT22;5115;50.920;6.376;2023-08-12T11:47:36;25.60;99.90
10149;DHT22;5115;50.920;6.376;2023-08-12T11:50:06;25.80;99.90
10149;DHT22;5115;50.920;6.376;2023-08-12T11:52:32;26.00;99.90
10149;DHT22;5115;50.920;6.376;2023-08-12T11:54:58;26.20;99.90
10149;DHT22;5115;50.920;6.376;2023-08-12T11:57:25;26.30;99.90
10149;DHT22;5115;50.920;6.376;2023-08-12T11:59:51;26.30;99.90
10149;DHT22;5115;50.920;6.376;2023-08-12T12:02:16;26.40;99.90
10149;DHT22;5115;50.920;6.376;2023-08-12T12:04:42;26.40;99.90
10149;DHT22;5115;50.920;6.376;2023-08-12T12:07:21;26.40;99.90
10149;DHT22;5115;50.920;6.376;2023-08-12T12:09:51;26.30;99.90
10149;DHT22;5115;50.920;6.376;2023-08-12T12:12:17;26.40;99.90
10149;DHT22;5115;50.920;6.376;2023-08-12T12:14:43;26.30;99.90
10149;DHT22;5115;50.920;6.376;2023-08-12T12:17:09;26.20;99.90
10149;DHT22;5115;50.920;6.376;2023-08-12T12:19:35;25.80;99.90
10149;DHT22;5115;50.920;6.376;2023-08-12T12:22:03;25.40;99.90
10149;DHT22;5115;50.920;6.376;2023-08-12T12:24:30;25.10;99.90
10149;DHT22;5115;50.920;6.376;2023-08-12T12:26:56;24.90;99.90
10149;DHT22;5115;50.920;6.376;2023-08-12T12:29:22;24.80;99.90
10149;DHT22;5115;50.920;6.376;2023-08-12T12:31:48;24.80;99.90
10149;DHT22;5115;50.920;6.376;2023-08-12T12:34:13;24.70;99.90
10149;DHT22;5115;50.920;6.376;2023-08-12T12:36:40;24.60;99.90
10149;DHT22;5115;50.920;6.376;2023-08-12T12:39:06;24.80;99.90
10149;DHT22;5115;50.920;6.376;2023-08-12T12:41:32;24.90;99.90
10149;DHT22;5115;50.920;6.376;2023-08-12T12:44:00;24.70;99.90
10149;DHT22;5115;50.920;6.376;2023-08-12T12:46:27;24.50;99.90
10149;DHT22;5115;50.920;6.376;2023-08-12T12:48:52;24.50;99.90
10149;DHT22;5115;50.920;6.376;2023-08-12T12:51:18;24.40;99.90
10149;DHT22;5115;50.920;6.376;2023-08-12T12:53:44;24.30;99.90
10149;DHT22;5115;50.920;6.376;2023-08-12T12:56:10;24.60;99.90
10149;DHT22;5115;50.920;6.376;2023-08-12T12:58:36;24.80;99.90
10149;DHT22;5115;50.920;6.376;2023-08-12T13:01:03;24.80;99.90
10149;DHT22;5115;50.920;6.376;2023-08-12T13:03:33;24.80;99.90
10149;DHT22;5115;50.920;6.376;2023-08-12T13:05:58;24.60;99.90
10149;DHT22;5115;50.920;6.376;2023-08-12T13:08:24;24.50;99.90
10149;DHT22;5115;50.920;6.376;2023-08-12T13:10:51;24.60;99.90
10149;DHT22;5115;50.920;6.376;2023-08-12T13:13:17;24.60;99.90
10149;DHT22;5115;50.920;6.376;2023-08-12T13:15:43;24.90;99.90
10149;DHT22;5115;50.920;6.376;2023-08-12T13:18:10;25.10;99.90
10149;DHT22;5115;50.920;6.376;2023-08-12T13:20:35;25.20;99.90
10149;DHT22;5115;50.920;6.376;2023-08-12T13:23:01;25.30;99.90
10149;DHT22;5115;50.920;6.376;2023-08-12T13:25:31;25.30;99.90
10149;DHT22;5115;50.920;6.376;2023-08-12T13:28:01;25.40;99.90
10149;DHT22;5115;50.920;6.376;2023-08-12T13:30:27;25.50;99.90
10149;DHT22;5115;50.920;6.376;2023-08-12T13:32:53;25.60;99.90
10149;DHT22;5115;50.920;6.376;2023-08-12T13:35:18;25.60;99.90
10149;DHT22;5115;50.920;6.376;2023-08-12T13:37:44;25.50;99.90
10149;DHT22;5115;50.920;6.376;2023-08-12T13:40:10;25.60;99.90
10149;DHT22;5115;50.920;6.376;2023-08-12T13:42:37;25.60;99.90
10149;DHT22;5115;50.920;6.376;2023-08-12T13:45:03;25.60;99.90
10149;DHT22;5115;50.920;6.376;2023-08-12T13:47:29;25.50;99.90
10149;DHT22;5115;50.920;6.376;2023-08-12T13:49:55;25.70;99.90
10149;DHT22;5115;50.920;6.376;2023-08-12T13:52:21;25.70;99.90
10149;DHT22;5115;50.920;6.376;2023-08-12T13:54:46;25.60;99.90
10149;DHT22;5115;50.920;6.376;2023-08-12T13:57:12;25.50;99.90
10149;DHT22;5115;50.920;6.376;2023-08-12T13:59:37;25.70;99.90
10149;DHT22;5115;50.920;6.376;2023-08-12T14:02:03;25.60;99.90
10149;DHT22;5115;50.920;6.376;2023-08-12T14:04:28;25.60;99.90
10149;DHT22;5115;50.920;6.376;2023-08-12T14:06:54;25.50;99.90
10149;DHT22;5115;50.920;6.376;2023-08-12T14:09:19;25.40;99.90
10149;DHT22;5115;50.920;6.376;2023-08-12T14:11:45;25.50;99.90
10149;DHT22;5115;50.920;6.376;2023-08-12T14:14:11;25.50;99.90
10149;DHT22;5115;50.920;6.376;2023-08-12T14:16:36;25.50;99.90
10149;DHT22;5115;50.920;6.376;2023-08-12T14:19:02;25.60;99.90
10149;DHT22;5115;50.920;6.376;2023-08-12T14:21:28;25.60;99.90
10149;DHT22;5115;50.920;6.376;2023-08-12T14:23:53;25.50;99.90
10149;DHT22;5115;50.920;6.376;2023-08-12T14:26:19;25.40;99.90
10149;DHT22;5115;50.920;6.376;2023-08-12T14:28:44;25.30;99.90
10149;DHT22;5115;50.920;6.376;2023-08-12T14:31:10;25.30;99.90
10149;DHT22;5115;50.920;6.376;2023-08-12T14:33:35;25.40;99.90
10149;DHT22;5115;50.920;6.376;2023-08-12T14:36:03;25.30;99.90
10149;DHT22;5115;50.920;6.376;2023-08-12T14:38:28;25.30;99.90
10149;DHT22;5115;50.920;6.376;2023-08-12T14:40:54;25.30;99.90
10149;DHT22;5115;50.920;6.376;2023-08-12T14:43:20;25.30;99.90
10149;DHT22;5115;50.920;6.376;2023-08-12T14:45:45;25.40;99.90
10149;DHT22;5115;50.920;6.376;2023-08-12T14:48:11;25.40;99.90
10149;DHT22;5115;50.920;6.376;2023-08-12T14:50:38;25.50;99.90
10149;DHT22;5115;50.920;6.376;2023-08-12T14:53:04;25.50;99.90
10149;DHT22;5115;50.920;6.376;2023-08-12T14:55:30;25.50;99.90
10149;DHT22;5115;50.920;6.376;2023-08-12T14:57:55;25.50;99.90
10149;DHT22;5115;50.920;6.376;2023-08-12T15:00:21;25.60;99.90
10149;DHT22;5115;50.920;6.376;2023-08-12T15:02:46;25.60;99.90
10149;DHT22;5115;50.920;6.376;2023-08-12T15:05:12;25.60;99.90
10149;DHT22;5115;50.920;6.376;2023-08-12T15:07:38;25.50;99.90
10149;DHT22;5115;50.920;6.376;2023-08-12T15:10:04;25.50;99.90
10149;DHT22;5115;50.920;6.376;2023-08-12T15:12:29;25.50;99.90
10149;DHT22;5115;50.920;6.376;2023-08-12T15:14:56;25.60;99.90
10149;DHT22;5115;50.920;6.376;2023-08-12T15:17:21;25.70;99.90
10149;DHT22;5115;50.920;6.376;2023-08-12T15:19:47;25.60;99.90
10149;DHT22;5115;50.920;6.376;2023-08-12T15:22:13;25.60;99.90
10149;DHT22;5115;50.920;6.376;2023-08-12T15:24:38;25.60;99.90
10149;DHT22;5115;50.920;6.376;2023-08-12T15:27:04;25.60;99.90
10149;DHT22;5115;50.920;6.376;2023-08-12T15:29:29;25.70;99.90
10149;DHT22;5115;50.920;6.376;2023-08-12T15:31:55;25.70;99.90
10149;DHT22;5115;50.920;6.376;2023-08-12T15:34:21;25.60;99.90
10149;DHT22;5115;50.920;6.376;2023-08-12T15:36:47;25.60;99.90
10149;DHT22;5115;50.920;6.376;2023-08-12T15:39:12;25.70;99.90
10149;DHT22;5115;50.920;6.376;2023-08-12T15:41:42;25.80;99.90
10149;DHT22;5115;50.920;6.376;2023-08-12T15:44:09;25.80;99.90